sensor_id;sensor_type;location;lat;lon;timestamp;pressure;altitude;pressure_sealevel;temperature;humidity
47592;BME280;33317;33.356;-117.184;2022-09-09T00:01:51;98058.92;;;27.64;24.04
47592;BME280;33317;33.356;-117.184;2022-09-09T00:04:27;98061.29;;;26.75;25.05
47592;BME280;33317;33.356;-117.184;2022-09-09T00:07:03;98062.88;;;26.95;24.88
47592;BME280;33317;33.356;-117.184;2022-09-09T00:09:39;98065.23;;;26.97;24.66
47592;BME280;33317;33.356;-117.184;2022-09-09T00:12:14;98066.71;;;28.19;23.80
47592;BME280;33317;33.356;-117.184;2022-09-09T00:14:50;98058.05;;;28.56;23.09
47592;BME280;33317;33.356;-117.184;2022-09-09T00:17:31;98056.63;;;29.03;22.54
47592;BME280;33317;33.356;-117.184;2022-09-09T00:20:14;98062.39;;;29.67;21.56
47592;BME280;33317;33.356;-117.184;2022-09-09T00:22:50;98062.92;;;30.30;21.12
47592;BME280;33317;33.356;-117.184;2022-09-09T00:25:29;98060.25;;;27.92;23.45
47592;BME280;33317;33.356;-117.184;2022-09-09T00:27:59;98057.91;;;28.27;23.34
47592;BME280;33317;33.356;-117.184;2022-09-09T00:30:33;98062.11;;;27.78;24.22
47592;BME280;33317;33.356;-117.184;2022-09-09T00:33:12;98065.37;;;26.40;25.39
47592;BME280;33317;33.356;-117.184;2022-09-09T00:35:45;98063.23;;;26.77;24.95
47592;BME280;33317;33.356;-117.184;2022-09-09T00:38:19;98062.45;;;28.40;23.02
47592;BME280;33317;33.356;-117.184;2022-09-09T00:41:03;98061.10;;;29.50;22.23
47592;BME280;33317;33.356;-117.184;2022-09-09T00:43:37;98061.82;;;27.09;23.95
47592;BME280;33317;33.356;-117.184;2022-09-09T00:46:14;98056.89;;;28.22;23.47
47592;BME280;33317;33.356;-117.184;2022-09-09T00:48:54;98052.84;;;26.57;25.13
47592;BME280;33317;33.356;-117.184;2022-09-09T00:51:34;98052.34;;;26.54;25.18
47592;BME280;33317;33.356;-117.184;2022-09-09T00:54:17;98051.28;;;26.69;25.04
47592;BME280;33317;33.356;-117.184;2022-09-09T00:57:04;98053.48;;;26.88;24.92
47592;BME280;33317;33.356;-117.184;2022-09-09T00:59:46;98054.25;;;26.25;25.17
47592;BME280;33317;33.356;-117.184;2022-09-09T01:02:24;98047.82;;;25.38;26.42
47592;BME280;33317;33.356;-117.184;2022-09-09T01:04:54;98039.61;;;25.52;26.26
47592;BME280;33317;33.356;-117.184;2022-09-09T01:07:29;98031.51;;;25.99;26.02
47592;BME280;33317;33.356;-117.184;2022-09-09T01:09:59;98029.55;;;25.76;26.14
47592;BME280;33317;33.356;-117.184;2022-09-09T01:12:38;98030.17;;;26.40;25.25
47592;BME280;33317;33.356;-117.184;2022-09-09T01:15:12;98035.14;;;25.77;26.04
47592;BME280;33317;33.356;-117.184;2022-09-09T01:17:53;98038.56;;;25.51;26.28
47592;BME280;33317;33.356;-117.184;2022-09-09T01:20:27;98037.32;;;25.42;26.41
47592;BME280;33317;33.356;-117.184;2022-09-09T01:23:08;98029.42;;;26.04;25.50
47592;BME280;33317;33.356;-117.184;2022-09-09T01:26:16;98016.43;;;25.17;26.49
47592;BME280;33317;33.356;-117.184;2022-09-09T01:28:48;98011.34;;;25.81;25.74
47592;BME280;33317;33.356;-117.184;2022-09-09T01:31:20;98011.59;;;25.74;25.70
47592;BME280;33317;33.356;-117.184;2022-09-09T01:33:50;98007.64;;;25.40;26.09
47592;BME280;33317;33.356;-117.184;2022-09-09T01:36:24;98012.18;;;25.92;25.58
47592;BME280;33317;33.356;-117.184;2022-09-09T01:38:54;98020.07;;;26.80;24.83
47592;BME280;33317;33.356;-117.184;2022-09-09T01:41:23;98018.49;;;25.79;25.99
47592;BME280;33317;33.356;-117.184;2022-09-09T01:43:52;98006.95;;;24.92;26.78
47592;BME280;33317;33.356;-117.184;2022-09-09T01:46:23;98000.69;;;26.66;24.87
47592;BME280;33317;33.356;-117.184;2022-09-09T01:48:55;98003.97;;;25.46;25.84
47592;BME280;33317;33.356;-117.184;2022-09-09T01:51:26;98007.92;;;25.64;25.68
47592;BME280;33317;33.356;-117.184;2022-09-09T01:53:56;98008.49;;;25.15;26.47
47592;BME280;33317;33.356;-117.184;2022-09-09T01:56:37;98006.88;;;25.11;26.49
47592;BME280;33317;33.356;-117.184;2022-09-09T01:59:20;98006.70;;;24.88;26.65
47592;BME280;33317;33.356;-117.184;2022-09-09T02:02:03;98009.11;;;25.20;26.56
47592;BME280;33317;33.356;-117.184;2022-09-09T02:04:40;98010.89;;;26.18;25.25
47592;BME280;33317;33.356;-117.184;2022-09-09T02:07:53;98010.18;;;26.59;24.81
47592;BME280;33317;33.356;-117.184;2022-09-09T02:10:31;97993.71;;;28.08;23.07
47592;BME280;33317;33.356;-117.184;2022-09-09T02:13:04;97981.42;;;29.21;21.74
47592;BME280;33317;33.356;-117.184;2022-09-09T02:15:35;97976.47;;;29.76;21.05
47592;BME280;33317;33.356;-117.184;2022-09-09T02:18:09;97972.06;;;26.47;24.56
47592;BME280;33317;33.356;-117.184;2022-09-09T02:20:40;97965.14;;;28.79;22.36
47592;BME280;33317;33.356;-117.184;2022-09-09T02:23:13;97965.33;;;26.61;24.17
47592;BME280;33317;33.356;-117.184;2022-09-09T02:25:44;97969.80;;;26.88;24.50
47592;BME280;33317;33.356;-117.184;2022-09-09T02:28:14;97969.10;;;26.30;25.25
47592;BME280;33317;33.356;-117.184;2022-09-09T02:30:46;97965.96;;;27.05;24.12
47592;BME280;33317;33.356;-117.184;2022-09-09T02:33:18;97960.71;;;26.05;25.03
47592;BME280;33317;33.356;-117.184;2022-09-09T02:35:48;97967.87;;;25.55;25.76
47592;BME280;33317;33.356;-117.184;2022-09-09T02:38:19;97974.25;;;24.74;26.76
47592;BME280;33317;33.356;-117.184;2022-09-09T02:40:55;97984.51;;;25.14;26.27
47592;BME280;33317;33.356;-117.184;2022-09-09T02:43:24;97991.25;;;24.46;27.02
47592;BME280;33317;33.356;-117.184;2022-09-09T02:45:59;97990.26;;;25.45;26.27
47592;BME280;33317;33.356;-117.184;2022-09-09T02:48:41;97985.28;;;26.28;25.33
47592;BME280;33317;33.356;-117.184;2022-09-09T02:51:16;97983.91;;;26.35;24.89
47592;BME280;33317;33.356;-117.184;2022-09-09T02:53:53;97982.95;;;25.47;25.89
47592;BME280;33317;33.356;-117.184;2022-09-09T02:56:29;97978.05;;;25.46;25.69
47592;BME280;33317;33.356;-117.184;2022-09-09T02:59:02;97986.30;;;28.00;23.50
47592;BME280;33317;33.356;-117.184;2022-09-09T03:01:37;97982.16;;;29.05;22.56
47592;BME280;33317;33.356;-117.184;2022-09-09T03:04:07;97983.28;;;27.59;24.12
47592;BME280;33317;33.356;-117.184;2022-09-09T03:06:38;97992.45;;;27.14;24.51
47592;BME280;33317;33.356;-117.184;2022-09-09T03:09:09;97993.37;;;26.59;24.82
47592;BME280;33317;33.356;-117.184;2022-09-09T03:11:49;97999.74;;;26.55;24.97
47592;BME280;33317;33.356;-117.184;2022-09-09T03:14:23;97999.39;;;25.64;25.69
47592;BME280;33317;33.356;-117.184;2022-09-09T03:16:54;97993.75;;;25.18;26.26
47592;BME280;33317;33.356;-117.184;2022-09-09T03:19:25;97988.85;;;25.92;25.39
47592;BME280;33317;33.356;-117.184;2022-09-09T03:21:58;97986.33;;;27.26;24.17
47592;BME280;33317;33.356;-117.184;2022-09-09T03:24:36;97980.86;;;25.95;25.17
47592;BME280;33317;33.356;-117.184;2022-09-09T03:27:05;97979.22;;;25.82;25.72
47592;BME280;33317;33.356;-117.184;2022-09-09T03:29:42;97978.44;;;26.62;24.97
47592;BME280;33317;33.356;-117.184;2022-09-09T03:32:13;97981.58;;;27.58;23.73
47592;BME280;33317;33.356;-117.184;2022-09-09T03:34:46;97982.71;;;26.50;24.25
47592;BME280;33317;33.356;-117.184;2022-09-09T03:37:16;97984.20;;;27.05;24.09
47592;BME280;33317;33.356;-117.184;2022-09-09T03:39:56;97988.55;;;25.88;25.25
